Time;durP1;ratioP1;P1;durP2;ratioP2;P2;SDS_P1;SDS_P2;PMS_P1;PMS_P2;Temp;Humidity;BMP_temperature;BMP_pressure;BME280_temperature;BME280_humidity;BME280_pressure;Samples;Min_cycle;Max_cycle;Signal;HPM_P1;HPM_P2
2023/04/26 00:00:21;;;;;;;25.60;11.10;;;;;;;;;;137738;1272;22047;-82
2023/04/26 00:03:42;;;;;;;21.40;11.70;;;;;;;;;;137653;1272;22627;-82
2023/04/26 00:06:44;;;;;;;18.70;11.90;;;;;;;;;;137695;1272;22108;-82
2023/04/26 00:09:47;;;;;;;21.30;11.30;;;;;;;;;;137689;1272;22141;-81
2023/04/26 00:12:48;;;;;;;29.60;11.50;;;;;;;;;;137686;1272;22032;-82
2023/04/26 00:15:49;;;;;;;25.90;12.10;;;;;;;;;;137659;1272;22063;-81
2023/04/26 00:18:50;;;;;;;21.80;11.40;;;;;;;;;;137695;1272;22056;-83
2023/04/26 00:21:51;;;;;;;23.10;11.40;;;;;;;;;;137728;1268;22069;-81
2023/04/26 00:24:52;;;;;;;23.40;10.50;;;;;;;;;;137711;1272;22085;-82
2023/04/26 00:27:53;;;;;;;30.00;11.10;;;;;;;;;;137670;1268;22111;-82
2023/04/26 00:30:56;;;;;;;32.00;10.80;;;;;;;;;;137707;1262;22326;-82
2023/04/26 00:33:57;;;;;;;22.70;10.60;;;;;;;;;;137704;1272;22299;-82
2023/04/26 00:36:58;;;;;;;20.80;11.00;;;;;;;;;;137467;1268;265288;-83
2023/04/26 00:39:59;;;;;;;23.10;10.40;;;;;;;;;;137683;1272;22592;-82
2023/04/26 00:43:00;;;;;;;27.40;10.60;;;;;;;;;;137622;1272;22142;-81
2023/04/26 00:46:01;;;;;;;23.80;10.80;;;;;;;;;;137703;1272;22158;-81
2023/04/26 00:49:02;;;;;;;26.40;9.60;;;;;;;;;;137652;1272;22168;-81
2023/04/26 00:52:04;;;;;;;17.50;9.90;;;;;;;;;;137681;1272;22085;-81
2023/04/26 00:55:05;;;;;;;26.40;9.70;;;;;;;;;;137654;1268;22195;-81
2023/04/26 00:58:06;;;;;;;30.90;9.20;;;;;;;;;;137636;1272;22660;-82
2023/04/26 01:01:08;;;;;;;23.70;9.20;;;;;;;;;;137644;1269;22049;-82
2023/04/26 01:04:11;;;;;;;25.90;9.00;;;;;;;;;;137650;1269;22226;-82
2023/04/26 01:07:12;;;;;;;22.10;7.90;;;;;;;;;;137703;1272;22061;-82
2023/04/26 01:10:13;;;;;;;27.20;9.40;;;;;;;;;;137640;1272;22115;-82
2023/04/26 01:13:14;;;;;;;21.90;8.60;;;;;;;;;;137723;1272;22276;-81
2023/04/26 01:16:15;;;;;;;19.30;7.70;;;;;;;;;;137692;1272;22015;-80
2023/04/26 01:19:17;;;;;;;25.10;8.20;;;;;;;;;;137677;1272;22540;-81
2023/04/26 01:22:18;;;;;;;23.40;7.50;;;;;;;;;;137684;1272;22051;-80
2023/04/26 01:25:19;;;;;;;25.60;8.60;;;;;;;;;;137660;1272;22210;-81
2023/04/26 01:28:20;;;;;;;15.50;7.90;;;;;;;;;;137647;1272;22873;-81
2023/04/26 01:31:21;;;;;;;20.10;7.10;;;;;;;;;;137693;1272;22072;-80
2023/04/26 01:34:22;;;;;;;18.40;7.40;;;;;;;;;;137657;1272;22415;-81
2023/04/26 01:37:23;;;;;;;21.60;7.60;;;;;;;;;;137712;1272;22071;-81
2023/04/26 01:40:25;;;;;;;26.00;8.00;;;;;;;;;;137644;1272;22124;-81
2023/04/26 01:43:26;;;;;;;20.70;8.00;;;;;;;;;;137677;1272;22245;-81
2023/04/26 01:46:29;;;;;;;20.60;7.60;;;;;;;;;;137698;1272;22267;-81
2023/04/26 01:49:31;;;;;;;21.60;7.20;;;;;;;;;;137667;1272;22552;-80
2023/04/26 01:52:32;;;;;;;21.50;6.70;;;;;;;;;;137647;1272;22251;-82
2023/04/26 01:55:33;;;;;;;23.90;7.60;;;;;;;;;;137647;1272;22043;-82
2023/04/26 01:58:34;;;;;;;20.40;7.60;;;;;;;;;;137646;1272;22121;-81
2023/04/26 02:01:36;;;;;;;22.70;8.40;;;;;;;;;;137647;1272;22039;-80
2023/04/26 02:04:37;;;;;;;20.10;7.40;;;;;;;;;;137645;1272;22126;-80
2023/04/26 02:07:38;;;;;;;19.80;6.80;;;;;;;;;;137643;1272;22080;-81
2023/04/26 02:10:39;;;;;;;24.40;8.30;;;;;;;;;;137637;1272;22095;-81
2023/04/26 02:13:40;;;;;;;28.70;8.90;;;;;;;;;;137638;1272;22072;-81
2023/04/26 02:16:42;;;;;;;18.50;7.90;;;;;;;;;;137652;1272;22249;-80
2023/04/26 02:19:43;;;;;;;19.40;7.90;;;;;;;;;;137737;1272;22047;-79
2023/04/26 02:22:44;;;;;;;20.80;7.70;;;;;;;;;;137644;1272;22119;-80
2023/04/26 02:25:46;;;;;;;18.70;7.40;;;;;;;;;;137695;1272;22251;-80
2023/04/26 02:28:47;;;;;;;23.30;8.00;;;;;;;;;;137704;1272;22095;-80
2023/04/26 02:31:48;;;;;;;24.40;8.40;;;;;;;;;;137678;1272;22050;-80
2023/04/26 02:34:49;;;;;;;20.00;7.80;;;;;;;;;;137683;1272;22250;-80
2023/04/26 02:37:51;;;;;;;21.90;7.60;;;;;;;;;;137693;1272;22306;-80
2023/04/26 02:40:52;;;;;;;15.70;7.50;;;;;;;;;;137692;1272;22280;-79
2023/04/26 02:43:56;;;;;;;22.80;7.30;;;;;;;;;;137677;1272;22055;-79
2023/04/26 02:46:57;;;;;;;16.90;6.20;;;;;;;;;;137680;1272;22184;-79
2023/04/26 02:49:58;;;;;;;15.70;6.60;;;;;;;;;;137700;1272;22128;-80
2023/04/26 02:52:59;;;;;;;27.30;6.80;;;;;;;;;;137669;1272;22109;-81
2023/04/26 02:56:00;;;;;;;14.70;6.30;;;;;;;;;;137683;1272;22197;-79
2023/04/26 02:59:01;;;;;;;16.10;6.60;;;;;;;;;;137622;1272;22563;-80
2023/04/26 03:02:02;;;;;;;21.20;7.80;;;;;;;;;;137682;1272;22150;-79
2023/04/26 03:05:04;;;;;;;15.20;6.40;;;;;;;;;;137641;1272;22049;-82
2023/04/26 03:08:05;;;;;;;20.00;7.90;;;;;;;;;;137705;1272;22171;-81
2023/04/26 03:11:07;;;;;;;19.60;6.60;;;;;;;;;;137705;1272;22103;-80
2023/04/26 03:14:08;;;;;;;21.40;7.70;;;;;;;;;;137658;1272;22580;-81
2023/04/26 03:17:09;;;;;;;18.00;7.30;;;;;;;;;;137684;1262;22199;-78
2023/04/26 03:20:10;;;;;;;17.90;6.80;;;;;;;;;;137628;1272;22325;-79
2023/04/26 03:23:11;;;;;;;17.30;6.80;;;;;;;;;;137673;1272;22142;-79
2023/04/26 03:26:12;;;;;;;23.90;7.10;;;;;;;;;;137658;1272;22634;-79
2023/04/26 03:29:13;;;;;;;15.20;6.90;;;;;;;;;;137710;1272;22246;-80
2023/04/26 03:32:14;;;;;;;18.70;6.90;;;;;;;;;;137713;1272;22260;-81
2023/04/26 03:35:15;;;;;;;25.70;7.80;;;;;;;;;;137664;1272;22125;-80
2023/04/26 03:38:16;;;;;;;20.80;8.20;;;;;;;;;;137696;1272;22079;-81
2023/04/26 03:41:17;;;;;;;16.30;7.20;;;;;;;;;;137689;1272;22137;-80
2023/04/26 03:44:18;;;;;;;16.10;7.00;;;;;;;;;;137615;1272;22244;-80
2023/04/26 03:47:19;;;;;;;15.40;7.20;;;;;;;;;;137629;1272;22155;-80
2023/04/26 03:50:20;;;;;;;17.80;7.90;;;;;;;;;;137663;1272;22301;-81
2023/04/26 03:53:21;;;;;;;23.40;8.30;;;;;;;;;;137641;1272;22393;-80
2023/04/26 03:56:22;;;;;;;13.90;7.40;;;;;;;;;;137651;1272;22266;-81
2023/04/26 03:59:24;;;;;;;21.70;7.60;;;;;;;;;;137652;1272;22615;-80
2023/04/26 04:02:25;;;;;;;24.10;7.60;;;;;;;;;;137592;1272;22142;-81
2023/04/26 04:05:26;;;;;;;23.30;7.50;;;;;;;;;;137648;1272;22291;-81
2023/04/26 04:08:27;;;;;;;30.30;11.60;;;;;;;;;;137647;1272;22214;-81
2023/04/26 04:11:28;;;;;;;20.00;10.20;;;;;;;;;;137625;1272;22159;-81
2023/04/26 04:14:29;;;;;;;26.90;10.10;;;;;;;;;;137599;1272;22101;-81
2023/04/26 04:17:30;;;;;;;21.90;8.90;;;;;;;;;;137605;1272;22613;-80
2023/04/26 04:20:31;;;;;;;23.30;8.00;;;;;;;;;;137601;1272;22424;-79
2023/04/26 04:23:32;;;;;;;14.50;7.20;;;;;;;;;;137586;1272;22263;-80
2023/04/26 04:26:33;;;;;;;18.70;8.60;;;;;;;;;;137601;1272;22258;-80
2023/04/26 04:29:35;;;;;;;13.70;8.60;;;;;;;;;;137603;1272;22085;-80
2023/04/26 04:32:36;;;;;;;17.90;9.20;;;;;;;;;;137604;1272;22123;-82
2023/04/26 04:35:37;;;;;;;23.10;9.60;;;;;;;;;;137603;1272;22123;-81
2023/04/26 04:38:39;;;;;;;20.90;9.40;;;;;;;;;;137606;1272;22264;-79
2023/04/26 04:41:46;;;;;;;15.70;8.10;;;;;;;;;;137657;1272;22195;-80
2023/04/26 04:44:48;;;;;;;20.90;9.50;;;;;;;;;;137630;1272;22707;-80
2023/04/26 04:47:49;;;;;;;18.20;7.50;;;;;;;;;;137620;1272;22099;-80
2023/04/26 04:50:51;;;;;;;15.20;6.90;;;;;;;;;;137584;1272;22316;-80
2023/04/26 04:53:52;;;;;;;19.20;7.10;;;;;;;;;;137639;1272;22090;-81
2023/04/26 04:56:53;;;;;;;16.40;7.10;;;;;;;;;;137608;1272;22652;-81
2023/04/26 04:59:54;;;;;;;22.80;6.30;;;;;;;;;;137589;1272;22110;-80
2023/04/26 05:02:55;;;;;;;14.70;7.10;;;;;;;;;;137599;1272;22130;-80
2023/04/26 05:05:56;;;;;;;13.90;6.50;;;;;;;;;;137601;1272;22192;-78
2023/04/26 05:08:57;;;;;;;17.50;6.30;;;;;;;;;;137666;1272;22145;-81
2023/04/26 05:11:58;;;;;;;13.30;5.60;;;;;;;;;;137674;1272;22249;-80
2023/04/26 05:15:00;;;;;;;16.00;5.80;;;;;;;;;;137671;1272;22158;-80
2023/04/26 05:18:01;;;;;;;13.90;5.50;;;;;;;;;;137665;1272;22356;-80
2023/04/26 05:21:02;;;;;;;12.90;6.30;;;;;;;;;;137641;1272;22091;-81
2023/04/26 05:24:03;;;;;;;15.30;6.80;;;;;;;;;;137614;1272;22145;-79
2023/04/26 05:27:04;;;;;;;12.30;5.60;;;;;;;;;;137644;1272;22266;-80
2023/04/26 05:30:05;;;;;;;28.50;6.80;;;;;;;;;;137690;1272;22343;-81
2023/04/26 05:33:06;;;;;;;11.60;4.70;;;;;;;;;;137666;1272;22129;-80
2023/04/26 05:36:08;;;;;;;14.10;5.70;;;;;;;;;;137616;1269;22173;-80
2023/04/26 05:39:09;;;;;;;11.30;5.50;;;;;;;;;;137624;1272;22112;-80
2023/04/26 05:42:10;;;;;;;18.90;6.10;;;;;;;;;;137631;1272;22271;-79
2023/04/26 05:45:11;;;;;;;17.80;5.40;;;;;;;;;;137650;1272;22140;-81
2023/04/26 05:48:12;;;;;;;16.70;5.40;;;;;;;;;;137645;1272;22129;-81
2023/04/26 05:51:13;;;;;;;11.70;4.80;;;;;;;;;;137639;1272;22133;-81
2023/04/26 05:54:14;;;;;;;23.20;5.90;;;;;;;;;;137659;1272;22088;-80
2023/04/26 05:57:16;;;;;;;16.40;6.20;;;;;;;;;;137634;1267;22160;-81
2023/04/26 06:00:19;;;;;;;15.40;4.50;;;;;;;;;;137629;1272;22313;-81
2023/04/26 06:03:20;;;;;;;17.30;5.60;;;;;;;;;;137675;1272;22223;-81
2023/04/26 06:06:21;;;;;;;13.60;4.90;;;;;;;;;;137667;1272;22149;-80
2023/04/26 06:09:23;;;;;;;11.90;4.50;;;;;;;;;;137715;1272;22129;-83
2023/04/26 06:12:24;;;;;;;12.70;4.30;;;;;;;;;;137637;1272;22137;-81
2023/04/26 06:15:26;;;;;;;10.50;4.20;;;;;;;;;;137677;1269;22277;-81
2023/04/26 06:18:27;;;;;;;15.20;4.40;;;;;;;;;;137643;1272;22389;-81
2023/04/26 06:21:28;;;;;;;12.00;4.70;;;;;;;;;;137649;1272;22236;-82
2023/04/26 06:24:29;;;;;;;13.00;4.80;;;;;;;;;;137676;1272;22665;-81
2023/04/26 06:27:30;;;;;;;13.20;4.40;;;;;;;;;;137627;1272;22244;-82
2023/04/26 06:30:32;;;;;;;16.00;4.50;;;;;;;;;;137616;1272;22111;-79
2023/04/26 06:33:33;;;;;;;11.10;4.70;;;;;;;;;;137684;1272;22064;-79
2023/04/26 06:36:34;;;;;;;8.70;4.40;;;;;;;;;;137629;1272;22276;-80
2023/04/26 06:39:37;;;;;;;11.70;4.20;;;;;;;;;;137676;1272;22152;-80
2023/04/26 06:42:38;;;;;;;11.30;4.40;;;;;;;;;;137622;1272;22097;-79
2023/04/26 06:45:39;;;;;;;9.20;4.00;;;;;;;;;;137641;1272;22130;-80
2023/04/26 06:48:40;;;;;;;9.60;3.60;;;;;;;;;;137648;1272;22133;-79
2023/04/26 06:51:41;;;;;;;12.90;3.90;;;;;;;;;;137462;1272;22080;-81
2023/04/26 06:54:42;;;;;;;13.80;4.70;;;;;;;;;;137703;1272;22098;-81
2023/04/26 06:57:43;;;;;;;10.10;3.90;;;;;;;;;;137628;1272;22424;-77
2023/04/26 07:00:44;;;;;;;9.30;3.20;;;;;;;;;;137666;1272;22148;-82
2023/04/26 07:03:45;;;;;;;8.60;3.10;;;;;;;;;;137639;1272;22123;-82
2023/04/26 07:06:46;;;;;;;17.80;4.20;;;;;;;;;;137583;1272;22111;-81
2023/04/26 07:09:47;;;;;;;13.10;3.70;;;;;;;;;;137641;1272;22316;-81
2023/04/26 07:12:48;;;;;;;7.60;3.00;;;;;;;;;;137618;1272;22096;-82
2023/04/26 07:15:50;;;;;;;8.90;2.80;;;;;;;;;;137632;1272;22095;-82
2023/04/26 07:18:51;;;;;;;14.30;3.80;;;;;;;;;;137612;1272;22139;-82
2023/04/26 07:21:52;;;;;;;15.10;3.50;;;;;;;;;;137642;1272;22116;-80
2023/04/26 07:24:53;;;;;;;9.80;3.00;;;;;;;;;;137666;1272;22094;-82
2023/04/26 07:27:54;;;;;;;12.30;3.30;;;;;;;;;;137663;1272;22133;-82
2023/04/26 07:30:56;;;;;;;12.90;2.40;;;;;;;;;;137616;1272;22076;-81
2023/04/26 07:33:57;;;;;;;14.60;2.80;;;;;;;;;;137689;1272;22217;-81
2023/04/26 07:36:58;;;;;;;9.10;3.10;;;;;;;;;;137670;1272;22201;-81
2023/04/26 07:39:59;;;;;;;12.80;3.20;;;;;;;;;;137653;1272;22116;-81
2023/04/26 07:43:00;;;;;;;10.00;4.60;;;;;;;;;;137663;1272;22151;-81
2023/04/26 07:46:01;;;;;;;8.50;2.20;;;;;;;;;;137649;1272;22601;-81
2023/04/26 07:49:03;;;;;;;7.60;2.20;;;;;;;;;;137685;1272;22124;-80
2023/04/26 07:52:04;;;;;;;6.40;2.50;;;;;;;;;;137703;1272;22711;-80
2023/04/26 07:55:05;;;;;;;8.50;2.30;;;;;;;;;;137702;1272;22107;-80
2023/04/26 07:58:06;;;;;;;7.80;2.30;;;;;;;;;;137659;1272;22154;-81
2023/04/26 08:01:08;;;;;;;6.70;3.20;;;;;;;;;;137644;1272;22036;-79
2023/04/26 08:04:09;;;;;;;6.20;2.00;;;;;;;;;;137649;1267;22147;-80
2023/04/26 08:07:10;;;;;;;6.60;2.40;;;;;;;;;;137601;1272;22097;-80
2023/04/26 08:10:11;;;;;;;6.70;1.90;;;;;;;;;;137668;1272;22182;-79
2023/04/26 08:13:12;;;;;;;10.90;2.70;;;;;;;;;;137639;1272;22296;-80
2023/04/26 08:16:16;;;;;;;11.40;2.60;;;;;;;;;;137654;1272;22110;-80
2023/04/26 08:19:17;;;;;;;9.60;2.30;;;;;;;;;;137596;1272;22122;-79
2023/04/26 08:22:19;;;;;;;7.40;2.40;;;;;;;;;;137633;1272;22206;-80
2023/04/26 08:25:22;;;;;;;6.50;2.50;;;;;;;;;;137594;1272;22128;-80
2023/04/26 08:28:23;;;;;;;8.00;2.60;;;;;;;;;;137566;1272;22091;-79
2023/04/26 08:31:25;;;;;;;8.90;2.40;;;;;;;;;;137599;1272;22123;-80
2023/04/26 08:34:28;;;;;;;5.90;1.90;;;;;;;;;;137640;1260;22131;-80
2023/04/26 08:37:29;;;;;;;6.40;2.20;;;;;;;;;;137649;1268;22208;-81
2023/04/26 08:40:30;;;;;;;10.30;2.90;;;;;;;;;;137636;1272;22076;-81
2023/04/26 08:43:31;;;;;;;13.00;3.10;;;;;;;;;;137633;1272;22724;-81
2023/04/26 08:46:32;;;;;;;5.80;2.70;;;;;;;;;;137649;1272;22746;-82
2023/04/26 08:49:33;;;;;;;8.70;2.40;;;;;;;;;;137673;1272;22225;-81
2023/04/26 08:52:34;;;;;;;8.20;2.20;;;;;;;;;;137653;1272;22663;-80
2023/04/26 08:55:36;;;;;;;4.50;2.20;;;;;;;;;;137663;1272;22124;-80
2023/04/26 08:58:37;;;;;;;10.60;2.80;;;;;;;;;;137646;1272;22276;-80
2023/04/26 09:01:38;;;;;;;8.20;2.70;;;;;;;;;;137668;1272;22291;-80
2023/04/26 09:04:39;;;;;;;8.90;3.00;;;;;;;;;;137680;1272;22167;-79
2023/04/26 09:07:40;;;;;;;16.80;3.60;;;;;;;;;;137647;1272;22106;-79
2023/04/26 09:10:41;;;;;;;10.00;3.20;;;;;;;;;;137642;1272;22115;-79
2023/04/26 09:13:42;;;;;;;15.40;3.20;;;;;;;;;;137659;1272;22194;-81
2023/04/26 09:16:44;;;;;;;6.50;2.10;;;;;;;;;;137624;1272;22290;-81
2023/04/26 09:19:45;;;;;;;13.70;2.70;;;;;;;;;;137629;1272;22320;-81
2023/04/26 09:22:46;;;;;;;8.70;2.80;;;;;;;;;;137651;1272;22130;-79
2023/04/26 09:25:47;;;;;;;9.50;2.50;;;;;;;;;;137659;1272;22112;-80
2023/04/26 09:28:49;;;;;;;5.70;2.30;;;;;;;;;;137656;1272;22141;-80
2023/04/26 09:31:50;;;;;;;7.10;2.20;;;;;;;;;;137663;1272;22781;-80
2023/04/26 09:34:51;;;;;;;10.50;2.30;;;;;;;;;;137610;1272;22111;-81
2023/04/26 09:37:52;;;;;;;5.50;1.80;;;;;;;;;;137675;1272;22076;-81
2023/04/26 09:40:55;;;;;;;7.50;2.30;;;;;;;;;;137583;1272;22138;-81
2023/04/26 09:43:57;;;;;;;4.50;2.30;;;;;;;;;;137635;1272;22238;-80
2023/04/26 09:46:58;;;;;;;4.60;2.20;;;;;;;;;;137625;1272;22911;-80
2023/04/26 09:50:00;;;;;;;8.40;2.40;;;;;;;;;;137622;1272;22604;-79
2023/04/26 09:53:01;;;;;;;9.20;2.30;;;;;;;;;;137630;1265;22164;-80
2023/04/26 09:56:02;;;;;;;13.60;2.60;;;;;;;;;;137562;1272;22187;-81
2023/04/26 09:59:04;;;;;;;3.80;2.20;;;;;;;;;;137643;1272;22417;-82
2023/04/26 10:02:05;;;;;;;9.10;2.90;;;;;;;;;;137667;1272;22143;-80
2023/04/26 10:05:07;;;;;;;6.10;2.40;;;;;;;;;;137698;1272;22293;-79
2023/04/26 10:08:08;;;;;;;8.10;2.90;;;;;;;;;;137661;1272;22120;-81
2023/04/26 10:11:10;;;;;;;7.80;2.30;;;;;;;;;;137678;1272;22557;-81
2023/04/26 10:14:11;;;;;;;7.40;2.20;;;;;;;;;;137700;1272;22585;-81
2023/04/26 10:17:12;;;;;;;13.30;4.10;;;;;;;;;;137710;1272;22302;-81
2023/04/26 10:20:13;;;;;;;11.80;4.70;;;;;;;;;;137675;1272;22137;-81
2023/04/26 10:23:14;;;;;;;9.50;2.30;;;;;;;;;;137677;1272;22124;-81
2023/04/26 10:26:15;;;;;;;5.30;2.60;;;;;;;;;;137681;1272;22934;-80
2023/04/26 10:29:16;;;;;;;3.90;2.10;;;;;;;;;;137687;1272;22127;-81
2023/04/26 10:32:18;;;;;;;8.20;2.50;;;;;;;;;;137702;1272;22209;-80
2023/04/26 10:35:20;;;;;;;12.90;6.00;;;;;;;;;;137661;1272;22089;-80
2023/04/26 10:38:21;;;;;;;7.30;2.90;;;;;;;;;;137622;1272;22124;-80
2023/04/26 10:41:22;;;;;;;5.10;2.40;;;;;;;;;;137673;1272;22123;-81
2023/04/26 10:44:23;;;;;;;7.90;3.90;;;;;;;;;;137674;1272;22148;-81
2023/04/26 10:47:24;;;;;;;6.10;2.30;;;;;;;;;;137686;1272;22738;-80
2023/04/26 10:50:25;;;;;;;5.30;2.30;;;;;;;;;;137673;1272;22237;-80
2023/04/26 10:53:26;;;;;;;5.50;1.70;;;;;;;;;;137656;1272;22690;-80
2023/04/26 10:56:28;;;;;;;7.10;2.40;;;;;;;;;;137577;1272;22220;-80
2023/04/26 10:59:29;;;;;;;3.80;1.90;;;;;;;;;;137644;1272;22107;-80
2023/04/26 11:02:30;;;;;;;6.40;2.70;;;;;;;;;;137613;1272;22268;-81
2023/04/26 11:05:31;;;;;;;4.40;2.40;;;;;;;;;;137628;1260;22125;-80
2023/04/26 11:08:33;;;;;;;7.10;2.60;;;;;;;;;;137618;1272;22210;-81
2023/04/26 11:11:34;;;;;;;4.40;2.20;;;;;;;;;;137612;1272;22476;-80
2023/04/26 11:14:35;;;;;;;8.60;3.10;;;;;;;;;;137654;1272;22119;-80
2023/04/26 11:17:36;;;;;;;8.00;2.50;;;;;;;;;;137624;1268;22102;-81
2023/04/26 11:20:37;;;;;;;7.20;2.00;;;;;;;;;;137622;1272;22125;-80
2023/04/26 11:23:38;;;;;;;7.60;2.30;;;;;;;;;;137620;1265;22971;-80
2023/04/26 11:26:40;;;;;;;6.70;2.10;;;;;;;;;;137597;1272;22652;-80
2023/04/26 11:29:44;;;;;;;5.70;2.40;;;;;;;;;;137631;1261;22134;-81
2023/04/26 11:32:45;;;;;;;6.50;2.60;;;;;;;;;;137669;1272;22132;-79
2023/04/26 11:35:46;;;;;;;8.30;2.00;;;;;;;;;;137661;1265;22167;-80
2023/04/26 11:38:47;;;;;;;6.90;3.20;;;;;;;;;;137628;1272;22494;-81
2023/04/26 11:41:48;;;;;;;5.30;2.20;;;;;;;;;;137603;1272;22555;-81
2023/04/26 11:44:50;;;;;;;7.90;2.10;;;;;;;;;;137636;1272;22142;-80
2023/04/26 11:47:51;;;;;;;6.60;2.40;;;;;;;;;;137688;1265;22107;-79
2023/04/26 11:50:52;;;;;;;9.30;2.80;;;;;;;;;;137698;1272;22153;-80
2023/04/26 11:53:53;;;;;;;7.30;2.30;;;;;;;;;;137737;1272;22025;-80
2023/04/26 11:56:54;;;;;;;3.00;1.80;;;;;;;;;;137736;1261;22111;-82
2023/04/26 11:59:56;;;;;;;4.80;1.50;;;;;;;;;;137751;1267;22215;-79
2023/04/26 12:02:58;;;;;;;4.80;2.30;;;;;;;;;;137754;1272;22872;-80
2023/04/26 12:05:59;;;;;;;9.30;2.10;;;;;;;;;;137661;1272;22175;-79
2023/04/26 12:09:00;;;;;;;3.90;1.80;;;;;;;;;;137712;1267;22570;-80
2023/04/26 12:12:03;;;;;;;9.30;2.30;;;;;;;;;;137697;1272;22578;-81
2023/04/26 12:15:04;;;;;;;5.10;2.30;;;;;;;;;;137699;1272;22454;-80
2023/04/26 12:18:05;;;;;;;4.80;2.60;;;;;;;;;;137631;1272;22277;-81
2023/04/26 12:21:06;;;;;;;8.40;3.00;;;;;;;;;;137693;1272;22081;-80
2023/04/26 12:24:07;;;;;;;9.30;2.20;;;;;;;;;;137705;1272;22150;-81
2023/04/26 12:27:08;;;;;;;6.30;2.30;;;;;;;;;;137691;1272;22090;-79
2023/04/26 12:30:09;;;;;;;6.20;2.10;;;;;;;;;;137628;1272;22098;-81
2023/04/26 12:33:10;;;;;;;5.60;1.70;;;;;;;;;;137630;1270;22156;-80
2023/04/26 12:36:11;;;;;;;4.30;2.00;;;;;;;;;;137539;1272;186219;-81
2023/04/26 12:39:14;;;;;;;5.80;2.10;;;;;;;;;;137735;1272;22114;-80
2023/04/26 12:42:15;;;;;;;7.90;2.60;;;;;;;;;;137743;1272;22007;-80
2023/04/26 12:45:17;;;;;;;8.40;2.40;;;;;;;;;;137371;1272;22169;-81
2023/04/26 12:48:21;;;;;;;5.40;1.90;;;;;;;;;;137119;1273;22231;-80
2023/04/26 12:51:23;;;;;;;3.70;2.10;;;;;;;;;;137102;1278;22106;-81
2023/04/26 12:54:24;;;;;;;10.20;2.80;;;;;;;;;;137118;1278;22119;-81
2023/04/26 12:57:25;;;;;;;5.90;1.80;;;;;;;;;;137075;1278;22131;-80
2023/04/26 13:00:26;;;;;;;6.00;2.00;;;;;;;;;;137103;1278;22166;-81
2023/04/26 13:03:27;;;;;;;7.00;2.10;;;;;;;;;;137103;1272;22089;-81
2023/04/26 13:06:28;;;;;;;6.50;1.90;;;;;;;;;;137147;1278;22110;-80
2023/04/26 13:09:30;;;;;;;6.20;2.20;;;;;;;;;;137203;1274;22134;-80
2023/04/26 13:12:31;;;;;;;6.90;2.30;;;;;;;;;;137140;1278;22121;-81
2023/04/26 13:15:32;;;;;;;9.30;3.80;;;;;;;;;;137200;1278;22100;-82
2023/04/26 13:18:33;;;;;;;4.20;2.80;;;;;;;;;;137239;1278;22120;-80
2023/04/26 13:21:34;;;;;;;5.60;3.00;;;;;;;;;;137238;1278;22516;-80
2023/04/26 13:24:35;;;;;;;3.50;2.50;;;;;;;;;;137214;1276;22157;-81
2023/04/26 13:27:36;;;;;;;7.20;2.90;;;;;;;;;;137281;1278;22101;-80
2023/04/26 13:30:37;;;;;;;7.00;2.80;;;;;;;;;;137205;1278;22090;-80
2023/04/26 13:33:38;;;;;;;9.50;2.40;;;;;;;;;;137292;1278;22526;-80
2023/04/26 13:36:40;;;;;;;6.40;2.30;;;;;;;;;;137316;1278;21876;-80
2023/04/26 13:39:41;;;;;;;5.20;2.40;;;;;;;;;;137344;1270;22108;-81
2023/04/26 13:42:42;;;;;;;5.20;2.30;;;;;;;;;;137271;1269;22111;-80
2023/04/26 13:45:43;;;;;;;9.00;2.20;;;;;;;;;;137230;1278;22210;-80
2023/04/26 13:48:44;;;;;;;6.70;3.40;;;;;;;;;;137217;1278;22134;-81
2023/04/26 13:51:45;;;;;;;18.20;3.90;;;;;;;;;;137091;1278;22262;-80
2023/04/26 13:54:46;;;;;;;5.70;2.00;;;;;;;;;;137122;1269;22141;-80
2023/04/26 13:57:47;;;;;;;7.90;2.20;;;;;;;;;;137139;1278;22136;-79
2023/04/26 14:00:48;;;;;;;8.10;2.70;;;;;;;;;;137124;1278;22614;-79
2023/04/26 14:03:49;;;;;;;9.80;2.40;;;;;;;;;;137130;1278;22124;-80
2023/04/26 14:06:50;;;;;;;4.30;2.40;;;;;;;;;;137141;1278;22116;-79
2023/04/26 14:09:52;;;;;;;4.70;2.10;;;;;;;;;;137191;1278;22128;-80
2023/04/26 14:12:55;;;;;;;4.70;2.10;;;;;;;;;;137184;1278;22083;-80
2023/04/26 14:15:56;;;;;;;7.00;1.70;;;;;;;;;;137241;1278;22147;-80
2023/04/26 14:18:57;;;;;;;5.70;2.60;;;;;;;;;;137222;1278;22521;-80
2023/04/26 14:21:58;;;;;;;12.30;2.40;;;;;;;;;;137242;1278;22151;-79
2023/04/26 14:24:59;;;;;;;5.70;2.50;;;;;;;;;;137161;1278;22627;-80
2023/04/26 14:28:00;;;;;;;10.50;2.90;;;;;;;;;;137163;1278;22510;-80
2023/04/26 14:31:01;;;;;;;6.80;2.60;;;;;;;;;;137140;1278;22755;-80
2023/04/26 14:34:02;;;;;;;7.10;3.30;;;;;;;;;;137080;1278;22561;-78
2023/04/26 14:37:03;;;;;;;6.20;2.30;;;;;;;;;;137113;1278;22482;-80
2023/04/26 14:40:05;;;;;;;5.70;2.70;;;;;;;;;;137098;1278;22618;-79
2023/04/26 14:43:06;;;;;;;10.60;3.10;;;;;;;;;;137079;1278;22173;-80
2023/04/26 14:46:07;;;;;;;11.50;3.90;;;;;;;;;;137155;1278;22121;-80
2023/04/26 14:49:08;;;;;;;6.10;3.00;;;;;;;;;;137165;1278;22593;-80
2023/04/26 14:52:09;;;;;;;13.60;2.60;;;;;;;;;;137130;1278;22097;-80
2023/04/26 14:55:10;;;;;;;11.90;3.50;;;;;;;;;;137151;1269;22479;-79
2023/04/26 14:58:11;;;;;;;8.00;3.70;;;;;;;;;;137150;1278;22089;-78
2023/04/26 15:01:13;;;;;;;10.10;4.80;;;;;;;;;;136941;1278;22566;-81
2023/04/26 15:04:14;;;;;;;11.80;3.70;;;;;;;;;;137158;1278;22113;-81
2023/04/26 15:07:15;;;;;;;6.50;3.10;;;;;;;;;;137183;1273;22155;-81
2023/04/26 15:10:16;;;;;;;11.30;3.60;;;;;;;;;;137197;1278;22596;-80
2023/04/26 15:13:17;;;;;;;8.50;4.00;;;;;;;;;;137191;1278;22157;-80
2023/04/26 15:16:18;;;;;;;7.50;3.80;;;;;;;;;;137194;1278;22104;-80
2023/04/26 15:19:19;;;;;;;7.50;2.80;;;;;;;;;;137134;1278;22135;-80
2023/04/26 15:22:20;;;;;;;9.40;2.70;;;;;;;;;;137165;1278;22440;-81
2023/04/26 15:25:22;;;;;;;5.40;2.80;;;;;;;;;;137183;1278;22588;-83
2023/04/26 15:28:23;;;;;;;7.50;3.00;;;;;;;;;;137172;1278;22091;-83
2023/04/26 15:31:24;;;;;;;9.40;3.50;;;;;;;;;;137122;1278;22029;-82
2023/04/26 15:34:26;;;;;;;14.30;5.80;;;;;;;;;;137169;1278;22129;-82
2023/04/26 15:37:27;;;;;;;18.70;8.00;;;;;;;;;;137171;1278;22593;-80
2023/04/26 15:40:28;;;;;;;23.10;7.80;;;;;;;;;;137191;1278;22126;-83
2023/04/26 15:43:29;;;;;;;14.00;4.90;;;;;;;;;;137166;1278;22587;-79
2023/04/26 15:46:30;;;;;;;11.40;4.20;;;;;;;;;;137148;1278;22355;-81
2023/04/26 15:49:34;;;;;;;10.50;4.50;;;;;;;;;;137150;1278;22705;-81
2023/04/26 15:52:35;;;;;;;8.40;4.00;;;;;;;;;;137124;1278;22140;-82
2023/04/26 15:55:36;;;;;;;9.50;5.10;;;;;;;;;;137119;1279;22104;-83
2023/04/26 15:58:37;;;;;;;7.00;2.90;;;;;;;;;;137154;1278;22169;-81
2023/04/26 16:01:38;;;;;;;14.50;4.00;;;;;;;;;;137091;1278;22075;-81
2023/04/26 16:04:39;;;;;;;9.20;3.00;;;;;;;;;;137140;1278;22116;-81
2023/04/26 16:07:40;;;;;;;11.40;4.60;;;;;;;;;;137204;1278;22097;-81
2023/04/26 16:10:41;;;;;;;15.90;5.30;;;;;;;;;;137261;1278;22118;-82
2023/04/26 16:13:43;;;;;;;11.70;4.00;;;;;;;;;;137137;1278;22615;-81
2023/04/26 16:16:45;;;;;;;14.30;4.20;;;;;;;;;;137170;1278;22076;-80
2023/04/26 16:19:49;;;;;;;8.50;3.40;;;;;;;;;;137215;1278;22074;-81
2023/04/26 16:22:50;;;;;;;13.10;3.40;;;;;;;;;;137318;1278;22047;-81
2023/04/26 16:25:51;;;;;;;13.10;5.20;;;;;;;;;;137346;1278;22139;-82
2023/04/26 16:28:53;;;;;;;10.60;3.60;;;;;;;;;;137355;1278;22048;-82
2023/04/26 16:31:54;;;;;;;8.60;3.90;;;;;;;;;;137144;1278;22146;-81
2023/04/26 16:34:55;;;;;;;9.00;4.50;;;;;;;;;;137149;1278;22129;-81
2023/04/26 16:37:57;;;;;;;9.00;4.30;;;;;;;;;;137163;1278;22132;-81
2023/04/26 16:40:58;;;;;;;8.10;3.40;;;;;;;;;;137152;1279;22187;-81
2023/04/26 16:44:00;;;;;;;11.20;5.10;;;;;;;;;;137095;1275;22610;-80
2023/04/26 16:47:01;;;;;;;6.50;3.10;;;;;;;;;;137160;1275;22055;-81
2023/04/26 16:50:03;;;;;;;9.10;4.30;;;;;;;;;;137120;1278;22161;-82
2023/04/26 16:53:04;;;;;;;10.50;3.70;;;;;;;;;;137107;1278;22488;-81
2023/04/26 16:56:05;;;;;;;8.80;4.00;;;;;;;;;;137120;1278;22109;-81
2023/04/26 16:59:06;;;;;;;9.40;3.40;;;;;;;;;;137074;1278;22771;-81
2023/04/26 17:02:08;;;;;;;18.60;8.00;;;;;;;;;;137090;1278;22112;-81
2023/04/26 17:05:09;;;;;;;11.60;5.20;;;;;;;;;;137046;1278;22105;-79
2023/04/26 17:08:10;;;;;;;14.70;4.30;;;;;;;;;;137080;1279;22471;-79
2023/04/26 17:11:11;;;;;;;8.80;5.00;;;;;;;;;;137031;1278;22132;-79
2023/04/26 17:14:12;;;;;;;13.30;4.10;;;;;;;;;;137066;1279;22108;-80
2023/04/26 17:17:14;;;;;;;15.60;3.80;;;;;;;;;;137079;1279;22488;-79
2023/04/26 17:20:15;;;;;;;9.90;3.50;;;;;;;;;;137096;1279;22111;-79
2023/04/26 17:23:16;;;;;;;13.60;4.90;;;;;;;;;;137095;1279;22633;-80
2023/04/26 17:26:17;;;;;;;9.70;3.90;;;;;;;;;;137190;1279;22111;-79
2023/04/26 17:29:18;;;;;;;9.00;3.70;;;;;;;;;;137088;1279;22595;-79
2023/04/26 17:32:19;;;;;;;8.50;3.40;;;;;;;;;;137115;1278;22119;-79
2023/04/26 17:35:20;;;;;;;10.60;4.80;;;;;;;;;;137117;1278;22144;-79
2023/04/26 17:38:21;;;;;;;22.90;12.60;;;;;;;;;;137112;1278;22122;-79